createdAt,value
2023-05-09T00:00:32.861Z,4.57
2023-05-09T00:02:59.607Z,4.88
2023-05-09T00:05:26.241Z,3.92
2023-05-09T00:07:53.012Z,4.72
2023-05-09T00:10:19.830Z,3.43
2023-05-09T00:12:47.231Z,4.88
2023-05-09T00:15:14.199Z,5.07
2023-05-09T00:17:41.222Z,4.53
2023-05-09T00:20:12.383Z,3.53
2023-05-09T00:22:41.004Z,4.43
2023-05-09T00:25:09.243Z,3.88
2023-05-09T00:27:36.410Z,4.30
2023-05-09T00:30:04.678Z,3.83
2023-05-09T00:32:32.863Z,5.13
2023-05-09T00:34:59.541Z,5.07
2023-05-09T00:37:26.325Z,4.93
2023-05-09T00:39:52.879Z,5.18
2023-05-09T00:42:19.629Z,3.80
2023-05-09T00:44:46.598Z,5.03
2023-05-09T00:47:13.263Z,5.13
2023-05-09T00:49:39.872Z,5.82
2023-05-09T00:52:06.654Z,4.70
2023-05-09T00:54:33.256Z,5.00
2023-05-09T00:57:00.718Z,5.40
2023-05-09T00:59:27.658Z,5.63
2023-05-09T01:01:54.314Z,4.80
2023-05-09T01:04:21.054Z,5.32
2023-05-09T01:06:50.494Z,4.43
2023-05-09T01:09:25.604Z,4.95
2023-05-09T01:11:59.377Z,4.90
2023-05-09T01:14:37.880Z,4.05
2023-05-09T01:17:13.458Z,4.40
2023-05-09T01:19:56.873Z,5.75
2023-05-09T01:22:30.319Z,5.40
2023-05-09T01:25:20.772Z,5.43
2023-05-09T01:28:24.935Z,5.35
2023-05-09T01:30:53.536Z,5.20
2023-05-09T01:33:22.908Z,5.18
2023-05-09T01:35:53.741Z,5.70
2023-05-09T01:38:24.693Z,4.60
2023-05-09T01:40:54.229Z,5.28
2023-05-09T01:43:25.186Z,5.40
2023-05-09T01:45:52.904Z,5.25
2023-05-09T01:48:21.053Z,5.20
2023-05-09T01:50:48.526Z,5.20
2023-05-09T01:53:17.586Z,5.38
2023-05-09T01:55:45.967Z,4.57
2023-05-09T01:58:13.356Z,5.72
2023-05-09T02:00:40.965Z,4.53
2023-05-09T02:03:08.665Z,5.30
2023-05-09T02:05:37.230Z,5.45
2023-05-09T02:08:03.994Z,6.03
2023-05-09T02:10:33.835Z,5.45
2023-05-09T02:13:00.477Z,5.20
2023-05-09T02:15:29.034Z,5.50
2023-05-09T02:17:56.040Z,5.13
2023-05-09T02:20:22.769Z,5.32
2023-05-09T02:22:50.590Z,5.50
2023-05-09T02:25:18.552Z,5.68
2023-05-09T02:27:46.595Z,3.77
2023-05-09T02:30:23.458Z,4.82
2023-05-09T02:32:53.629Z,5.07
2023-05-09T02:35:21.824Z,4.40
2023-05-09T02:37:48.943Z,5.13
2023-05-09T02:40:15.553Z,3.63
2023-05-09T02:42:42.181Z,5.90
2023-05-09T02:45:10.543Z,4.88
2023-05-09T02:47:38.114Z,4.68
2023-05-09T02:50:05.925Z,4.68
2023-05-09T02:52:33.943Z,4.97
2023-05-09T02:55:00.617Z,3.83
2023-05-09T02:57:27.388Z,3.65
2023-05-09T02:59:54.027Z,5.38
2023-05-09T03:02:20.710Z,5.63
2023-05-09T03:04:47.496Z,3.60
2023-05-09T03:07:14.122Z,5.47
2023-05-09T03:09:41.368Z,4.45
2023-05-09T03:12:08.383Z,4.40
2023-05-09T03:14:36.446Z,5.28
2023-05-09T03:17:03.255Z,5.90
2023-05-09T03:19:34.391Z,4.95
2023-05-09T03:22:01.065Z,5.72
2023-05-09T03:24:31.918Z,4.85
2023-05-09T03:26:58.460Z,5.25
2023-05-09T03:29:25.830Z,5.53
2023-05-09T03:31:53.934Z,5.47
2023-05-09T03:34:20.605Z,5.10
2023-05-09T03:36:47.276Z,5.35
2023-05-09T03:39:14.732Z,5.28
2023-05-09T03:41:44.654Z,4.77
2023-05-09T03:44:12.133Z,5.80
2023-05-09T03:46:39.745Z,4.82
2023-05-09T03:49:06.723Z,5.55
2023-05-09T03:51:34.599Z,6.18
2023-05-09T03:54:03.415Z,5.30
2023-05-09T03:56:30.066Z,5.93
2023-05-09T03:58:57.086Z,5.75
2023-05-09T04:01:25.354Z,5.07
2023-05-09T04:03:52.450Z,6.20
2023-05-09T04:06:20.674Z,5.73
2023-05-09T04:08:48.059Z,5.53
2023-05-09T04:11:14.761Z,4.00
2023-05-09T04:13:44.203Z,5.93
2023-05-09T04:16:31.134Z,5.78
2023-05-09T04:19:00.753Z,6.10
2023-05-09T04:21:27.321Z,5.40
2023-05-09T04:23:57.244Z,6.18
2023-05-09T04:26:31.506Z,5.68
2023-05-09T04:28:59.108Z,5.45
2023-05-09T04:31:26.514Z,4.90
2023-05-09T04:33:53.280Z,5.93
2023-05-09T04:36:21.163Z,5.95
2023-05-09T04:38:47.963Z,6.25
2023-05-09T04:41:18.642Z,5.80
2023-05-09T04:43:45.218Z,5.57
2023-05-09T04:46:12.047Z,5.90
2023-05-09T04:48:38.664Z,6.20
2023-05-09T04:51:05.289Z,5.68
2023-05-09T04:53:32.043Z,5.88
2023-05-09T04:55:59.806Z,5.73
2023-05-09T04:58:26.737Z,5.55
2023-05-09T05:00:55.125Z,5.88
2023-05-09T05:03:22.078Z,6.20
2023-05-09T05:05:48.974Z,6.30
2023-05-09T05:08:15.803Z,7.03
2023-05-09T05:10:43.031Z,6.53
2023-05-09T05:13:12.395Z,6.05
2023-05-09T05:15:42.942Z,6.28
2023-05-09T05:18:10.652Z,5.90
2023-05-09T05:20:37.290Z,5.87
2023-05-09T05:23:03.879Z,5.85
2023-05-09T05:25:31.305Z,6.43
2023-05-09T05:27:59.804Z,6.28
2023-05-09T05:30:26.498Z,7.10
2023-05-09T05:32:53.183Z,5.07
2023-05-09T05:35:23.282Z,6.10
2023-05-09T05:37:50.755Z,7.03
2023-05-09T05:40:17.704Z,6.60
2023-05-09T05:42:47.292Z,6.32
2023-05-09T05:45:14.565Z,7.23
2023-05-09T05:47:45.684Z,6.18
2023-05-09T05:50:13.910Z,6.47
2023-05-09T05:52:41.645Z,5.55
2023-05-09T05:55:11.762Z,6.03
2023-05-09T05:57:39.124Z,5.80
2023-05-09T06:00:10.842Z,6.35
2023-05-09T06:02:51.699Z,5.38
2023-05-09T06:05:29.232Z,4.93
2023-05-09T06:07:55.879Z,5.53
2023-05-09T06:10:22.582Z,5.10
2023-05-09T06:12:49.457Z,5.65
2023-05-09T06:15:16.484Z,5.47
2023-05-09T06:17:46.189Z,5.38
2023-05-09T06:20:12.846Z,6.18
2023-05-09T06:22:39.554Z,6.20
2023-05-09T06:25:08.698Z,6.55
2023-05-09T06:27:36.904Z,5.30
2023-05-09T06:30:14.044Z,6.05
2023-05-09T06:32:50.439Z,7.10
2023-05-09T06:35:17.151Z,6.77
2023-05-09T06:37:43.703Z,6.40
2023-05-09T06:40:10.500Z,5.93
2023-05-09T06:42:37.080Z,6.45
2023-05-09T06:45:03.954Z,7.55
2023-05-09T06:47:30.636Z,6.67
2023-05-09T06:49:57.371Z,6.25
2023-05-09T06:52:23.977Z,6.22
2023-05-09T06:54:50.624Z,6.35
2023-05-09T06:57:17.579Z,7.20
2023-05-09T06:59:44.878Z,6.53
2023-05-09T07:02:12.440Z,6.90
2023-05-09T07:04:39.092Z,6.82
2023-05-09T07:07:05.955Z,6.50
2023-05-09T07:09:32.599Z,6.57
2023-05-09T07:12:00.928Z,7.80
2023-05-09T07:14:27.569Z,7.20
2023-05-09T07:16:56.524Z,5.57
2023-05-09T07:19:28.936Z,6.40
2023-05-09T07:21:55.556Z,7.15
2023-05-09T07:24:22.191Z,7.20
2023-05-09T07:26:48.753Z,5.97
2023-05-09T07:29:15.452Z,7.88
2023-05-09T07:31:42.192Z,6.70
2023-05-09T07:34:08.800Z,6.85
2023-05-09T07:39:09.235Z,5.78
2023-05-09T07:41:35.960Z,7.05
2023-05-09T07:44:02.639Z,5.75
2023-05-09T07:46:30.244Z,5.28
2023-05-09T07:48:56.952Z,5.90
2023-05-09T07:51:23.966Z,7.47
2023-05-09T07:53:50.557Z,7.00
2023-05-09T07:56:17.169Z,6.63
2023-05-09T07:58:43.760Z,6.80
2023-05-09T08:01:10.876Z,6.70
2023-05-09T08:03:37.567Z,6.95
2023-05-09T08:06:04.196Z,6.75
2023-05-09T08:08:31.004Z,7.22
2023-05-09T08:10:58.119Z,7.07
2023-05-09T08:13:25.218Z,6.83
2023-05-09T08:15:51.979Z,7.10
2023-05-09T08:18:18.587Z,7.80
2023-05-09T08:20:45.415Z,7.85
2023-05-09T08:23:12.089Z,7.65
2023-05-09T08:25:38.731Z,7.60
2023-05-09T08:28:05.523Z,7.75
2023-05-09T08:30:32.214Z,6.25
2023-05-09T08:32:58.816Z,6.97
2023-05-09T08:35:25.467Z,8.25
2023-05-09T08:37:52.045Z,7.70
2023-05-09T08:40:24.862Z,7.93
2023-05-09T08:42:51.995Z,7.05
2023-05-09T08:45:27.547Z,7.07
2023-05-09T08:47:54.923Z,7.22
2023-05-09T08:50:22.196Z,7.93
2023-05-09T08:52:48.983Z,7.23
2023-05-09T08:55:15.778Z,8.05
2023-05-09T08:57:42.535Z,7.47
2023-05-09T09:00:12.057Z,8.30
2023-05-09T09:02:42.112Z,8.18
2023-05-09T09:05:19.690Z,8.10
2023-05-09T09:07:51.379Z,7.38
2023-05-09T09:10:21.177Z,7.10
2023-05-09T09:12:50.148Z,7.28
2023-05-09T09:15:19.593Z,7.45
2023-05-09T09:17:50.768Z,6.30
2023-05-09T09:20:20.933Z,8.30
2023-05-09T09:22:48.936Z,8.75
2023-05-09T09:25:15.770Z,9.05
2023-05-09T09:27:42.578Z,8.05
2023-05-09T09:30:11.402Z,7.87
2023-05-09T09:32:40.085Z,8.38
2023-05-09T09:35:08.953Z,8.00
2023-05-09T09:37:36.661Z,8.85
2023-05-09T09:40:05.014Z,9.38
2023-05-09T09:42:45.688Z,9.37
2023-05-09T09:45:13.932Z,7.07
2023-05-09T09:47:42.571Z,10.07
2023-05-09T09:50:12.176Z,9.20
2023-05-09T09:53:05.229Z,9.18
2023-05-09T09:55:32.046Z,8.43
2023-05-09T09:57:58.695Z,7.63
2023-05-09T10:00:30.165Z,8.93
2023-05-09T10:02:58.598Z,8.88
2023-05-09T10:05:29.944Z,9.50
2023-05-09T10:08:02.455Z,7.73
2023-05-09T10:10:31.117Z,9.52
2023-05-09T10:12:59.833Z,9.05
2023-05-09T10:15:30.097Z,9.10
2023-05-09T10:18:04.266Z,8.85
2023-05-09T10:20:31.867Z,8.37
2023-05-09T10:23:01.866Z,7.10
2023-05-09T10:25:36.672Z,8.30
2023-05-09T10:28:22.515Z,8.68
2023-05-09T10:30:49.087Z,8.82
2023-05-09T10:33:16.479Z,8.53
2023-05-09T10:35:46.342Z,8.27
2023-05-09T10:38:13.864Z,8.30
2023-05-09T10:40:40.866Z,7.70
2023-05-09T10:43:08.202Z,8.85
2023-05-09T10:45:35.160Z,8.03
2023-05-09T10:48:03.925Z,7.18
2023-05-09T10:50:31.418Z,7.53
2023-05-09T10:53:17.827Z,8.57
2023-05-09T10:55:47.743Z,8.52
2023-05-09T10:58:36.264Z,6.67
2023-05-09T11:01:06.109Z,7.45
2023-05-09T11:03:58.296Z,9.15
2023-05-09T11:06:49.402Z,7.22
2023-05-09T11:09:39.149Z,7.43
2023-05-09T11:12:06.105Z,6.77
2023-05-09T11:14:44.951Z,6.88
2023-05-09T11:17:27.814Z,7.82
2023-05-09T11:19:59.324Z,7.43
2023-05-09T11:22:40.362Z,8.10
2023-05-09T11:25:07.452Z,8.10
2023-05-09T11:27:38.916Z,7.72
2023-05-09T11:30:07.212Z,8.90
2023-05-09T11:32:41.803Z,8.30
2023-05-09T11:35:17.008Z,8.13
2023-05-09T11:38:03.894Z,7.80
2023-05-09T11:40:31.893Z,6.63
2023-05-09T11:42:59.589Z,7.07
2023-05-09T11:45:31.014Z,6.20
2023-05-09T11:47:58.179Z,5.57
2023-05-09T11:50:25.250Z,6.77
2023-05-09T11:52:52.008Z,7.45
2023-05-09T11:55:23.020Z,7.25
2023-05-09T11:57:53.912Z,7.60
2023-05-09T12:00:22.816Z,7.07
2023-05-09T12:02:51.040Z,6.13
2023-05-09T12:05:20.376Z,7.25
2023-05-09T12:07:47.952Z,6.72
2023-05-09T12:10:17.074Z,6.38
2023-05-09T12:12:55.692Z,6.30
2023-05-09T12:15:22.717Z,6.07
2023-05-09T12:18:03.529Z,6.55
2023-05-09T12:20:50.216Z,6.65
2023-05-09T12:23:16.936Z,6.47
2023-05-09T12:25:54.327Z,6.57
2023-05-09T12:28:25.730Z,5.50
2023-05-09T12:30:53.587Z,6.15
2023-05-09T12:33:21.278Z,6.18
2023-05-09T12:36:00.451Z,6.18
2023-05-09T12:38:27.102Z,5.20
2023-05-09T12:41:09.173Z,5.37
2023-05-09T12:43:39.859Z,4.97
2023-05-09T12:46:06.764Z,6.07
2023-05-09T12:48:38.741Z,5.32
2023-05-09T12:51:06.632Z,6.38
2023-05-09T12:53:38.759Z,6.03
2023-05-09T12:56:13.736Z,5.78
2023-05-09T12:58:40.414Z,5.72
2023-05-09T13:01:07.228Z,5.30
2023-05-09T13:03:37.958Z,5.35
2023-05-09T13:06:06.950Z,5.13
2023-05-09T13:08:33.563Z,5.05
2023-05-09T13:11:14.436Z,4.75
2023-05-09T13:13:42.432Z,5.03
2023-05-09T13:16:10.966Z,5.50
2023-05-09T13:18:38.759Z,4.93
2023-05-09T13:21:05.389Z,4.78
2023-05-09T13:23:32.009Z,4.80
2023-05-09T13:25:58.594Z,4.50
2023-05-09T13:28:25.360Z,4.93
2023-05-09T13:30:52.095Z,5.13
2023-05-09T13:33:26.044Z,4.07
2023-05-09T13:35:53.682Z,4.55
2023-05-09T13:38:20.301Z,5.07
2023-05-09T13:40:46.815Z,4.03
2023-05-09T13:43:13.457Z,5.10
2023-05-09T13:45:40.212Z,4.07
2023-05-09T13:48:06.854Z,4.10
2023-05-09T13:50:34.328Z,4.88
2023-05-09T13:53:01.049Z,4.70
2023-05-09T13:55:27.804Z,4.80
2023-05-09T13:57:54.899Z,3.72
2023-05-09T14:00:22.236Z,3.95
2023-05-09T14:02:48.894Z,4.53
2023-05-09T14:05:16.785Z,4.15
2023-05-09T14:07:43.633Z,3.67
2023-05-09T14:10:12.112Z,4.50
2023-05-09T14:12:40.065Z,4.40
2023-05-09T14:15:09.554Z,4.82
2023-05-09T14:17:36.159Z,3.92
2023-05-09T14:20:03.258Z,3.93
2023-05-09T14:22:29.780Z,3.58
2023-05-09T14:24:59.126Z,3.63
2023-05-09T14:27:26.196Z,3.67
2023-05-09T14:29:52.953Z,4.05
2023-05-09T14:32:19.528Z,3.70
2023-05-09T14:34:46.628Z,3.80
2023-05-09T14:37:16.062Z,4.38
2023-05-09T14:39:45.019Z,3.60
2023-05-09T14:42:13.985Z,3.92
2023-05-09T14:44:41.346Z,4.03
2023-05-09T14:47:08.988Z,4.43
2023-05-09T14:49:36.695Z,3.90
2023-05-09T14:52:03.554Z,4.78
2023-05-09T14:54:30.207Z,4.22
2023-05-09T14:56:57.392Z,3.70
2023-05-09T14:59:24.075Z,3.90
2023-05-09T15:01:51.726Z,4.05
2023-05-09T15:04:18.386Z,3.90
2023-05-09T15:06:45.833Z,4.10
2023-05-09T15:09:12.972Z,3.23
2023-05-09T15:11:47.500Z,3.88
2023-05-09T15:14:14.892Z,4.10
2023-05-09T15:16:41.718Z,4.15
2023-05-09T15:19:08.550Z,4.38
2023-05-09T15:21:35.295Z,3.80
2023-05-09T15:24:02.548Z,3.50
2023-05-09T15:26:29.984Z,3.20
2023-05-09T15:28:56.594Z,3.88
2023-05-09T15:31:24.812Z,4.05
2023-05-09T15:33:51.700Z,3.13
2023-05-09T15:36:18.344Z,4.05
2023-05-09T15:38:48.392Z,4.13
2023-05-09T15:41:15.630Z,3.92
2023-05-09T15:43:42.301Z,4.03
2023-05-09T15:46:09.100Z,4.33
2023-05-09T15:48:36.228Z,3.35
2023-05-09T15:51:04.015Z,3.78
2023-05-09T15:53:31.097Z,3.35
2023-05-09T15:55:57.957Z,3.97
2023-05-09T15:58:24.908Z,3.57
2023-05-09T16:00:51.686Z,4.07
2023-05-09T16:03:18.829Z,3.60
2023-05-09T16:05:45.576Z,3.53
2023-05-09T16:08:12.543Z,3.60
2023-05-09T16:10:39.192Z,3.70
2023-05-09T16:13:05.817Z,3.90
2023-05-09T16:15:32.678Z,3.50
2023-05-09T16:17:59.271Z,3.50
2023-05-09T16:20:25.904Z,4.35
2023-05-09T16:22:52.595Z,3.60
2023-05-09T16:25:19.407Z,3.40
2023-05-09T16:27:46.006Z,3.35
2023-05-09T16:30:13.396Z,3.50
2023-05-09T16:32:40.198Z,3.88
2023-05-09T16:35:07.652Z,3.37
2023-05-09T16:37:35.706Z,4.00
2023-05-09T16:40:02.904Z,3.55
2023-05-09T16:42:29.603Z,3.95
2023-05-09T16:44:57.401Z,3.75
2023-05-09T16:47:24.132Z,3.80
2023-05-09T16:49:50.757Z,3.70
2023-05-09T16:52:17.554Z,4.03
2023-05-09T16:54:44.118Z,3.58
2023-05-09T16:57:10.787Z,3.42
2023-05-09T16:59:37.531Z,3.73
2023-05-09T17:02:04.558Z,3.70
2023-05-09T17:04:31.507Z,3.95
2023-05-09T17:06:58.309Z,3.17
2023-05-09T17:09:25.105Z,3.65
2023-05-09T17:11:51.897Z,3.77
2023-05-09T17:14:18.486Z,2.80
2023-05-09T17:16:45.231Z,2.90
2023-05-09T17:19:11.987Z,3.53
2023-05-09T17:21:41.356Z,3.67
2023-05-09T17:24:09.425Z,3.90
2023-05-09T17:26:36.126Z,3.75
2023-05-09T17:29:03.735Z,3.80
2023-05-09T17:31:30.906Z,3.38
2023-05-09T17:33:57.555Z,3.95
2023-05-09T17:36:24.213Z,3.40
2023-05-09T17:38:50.902Z,3.50
2023-05-09T17:41:17.533Z,3.83
2023-05-09T17:43:44.364Z,3.30
2023-05-09T17:46:11.085Z,4.05
2023-05-09T17:48:37.798Z,3.70
2023-05-09T17:51:04.340Z,3.70
2023-05-09T17:53:31.236Z,3.85
2023-05-09T17:55:58.232Z,3.92
2023-05-09T17:58:25.074Z,4.18
2023-05-09T18:00:55.166Z,3.60
2023-05-09T18:03:21.892Z,3.33
2023-05-09T18:05:48.747Z,3.83
2023-05-09T18:08:16.304Z,3.78
2023-05-09T18:10:43.453Z,4.50
2023-05-09T18:13:10.096Z,4.00
2023-05-09T18:15:38.454Z,3.47
2023-05-09T18:18:08.844Z,3.88
2023-05-09T18:20:35.933Z,4.47
2023-05-09T18:23:02.554Z,3.95
2023-05-09T18:25:29.317Z,3.40
2023-05-09T18:27:56.569Z,3.72
2023-05-09T18:30:23.173Z,3.95
2023-05-09T18:32:49.855Z,3.63
2023-05-09T18:35:16.600Z,4.38
2023-05-09T18:37:43.206Z,3.97
2023-05-09T18:40:14.901Z,4.30
2023-05-09T18:42:42.087Z,4.60
2023-05-09T18:45:11.207Z,4.53
2023-05-09T18:47:38.119Z,4.20
2023-05-09T18:50:06.909Z,4.63
2023-05-09T18:52:34.360Z,4.47
2023-05-09T18:55:01.101Z,4.90
2023-05-09T18:57:28.283Z,4.75
2023-05-09T18:59:55.912Z,5.00
2023-05-09T19:02:23.545Z,4.87
2023-05-09T19:04:51.621Z,4.65
2023-05-09T19:07:18.580Z,4.70
2023-05-09T19:09:45.722Z,4.28
2023-05-09T19:12:12.419Z,5.00
2023-05-09T19:14:39.870Z,4.47
2023-05-09T19:17:06.486Z,4.40
2023-05-09T19:19:33.125Z,5.22
2023-05-09T19:22:01.479Z,4.72
2023-05-09T19:24:28.031Z,5.13
2023-05-09T19:26:54.659Z,4.80
2023-05-09T19:29:21.314Z,4.95
2023-05-09T19:31:47.950Z,5.03
2023-05-09T19:34:14.636Z,4.78
2023-05-09T19:36:41.293Z,4.30
2023-05-09T19:39:09.041Z,4.80
2023-05-09T19:41:35.885Z,4.53
2023-05-09T19:44:02.617Z,4.60
2023-05-09T19:46:29.337Z,4.93
2023-05-09T19:48:56.093Z,4.80
2023-05-09T19:51:22.704Z,4.90
2023-05-09T19:53:49.336Z,4.45
2023-05-09T19:56:16.154Z,6.85
2023-05-09T19:58:43.276Z,5.75
2023-05-09T20:01:10.094Z,5.97
2023-05-09T20:03:38.411Z,4.97
2023-05-09T20:06:05.133Z,5.53
2023-05-09T20:08:31.692Z,5.50
2023-05-09T20:11:00.007Z,5.45
2023-05-09T20:13:27.427Z,5.65
2023-05-09T20:15:54.144Z,4.83
2023-05-09T20:18:20.805Z,5.90
2023-05-09T20:20:47.388Z,5.40
2023-05-09T20:23:14.356Z,5.05
2023-05-09T20:25:40.942Z,5.18
2023-05-09T20:28:07.589Z,4.40
2023-05-09T20:30:34.212Z,4.95
2023-05-09T20:33:01.242Z,4.80
2023-05-09T20:35:27.907Z,4.85
2023-05-09T20:37:54.651Z,5.05
2023-05-09T20:40:21.261Z,5.10
2023-05-09T20:42:47.895Z,3.35
2023-05-09T20:45:14.429Z,5.72
2023-05-09T20:47:41.161Z,4.72
2023-05-09T20:50:08.197Z,5.05
2023-05-09T20:52:34.775Z,4.83
2023-05-09T20:55:01.954Z,4.00
2023-05-09T20:57:28.704Z,4.32
2023-05-09T20:59:55.305Z,5.30
2023-05-09T21:02:22.256Z,5.45
2023-05-09T21:04:48.860Z,4.70
2023-05-09T21:07:19.096Z,4.95
2023-05-09T21:09:47.062Z,5.35
2023-05-09T21:12:13.719Z,5.22
2023-05-09T21:14:40.866Z,5.50
2023-05-09T21:17:07.565Z,4.70
2023-05-09T21:19:34.227Z,4.10
2023-05-09T21:22:00.780Z,4.95
2023-05-09T21:24:27.406Z,5.20
2023-05-09T21:26:54.035Z,4.63
2023-05-09T21:29:20.691Z,5.10
2023-05-09T21:31:47.256Z,5.18
2023-05-09T21:34:13.828Z,5.18
2023-05-09T21:36:40.700Z,5.28
2023-05-09T21:39:11.588Z,5.60
2023-05-09T21:41:39.980Z,5.60
2023-05-09T21:44:07.735Z,5.05
2023-05-09T21:46:35.147Z,5.80
2023-05-09T21:49:02.012Z,5.32
2023-05-09T21:51:29.073Z,5.40
2023-05-09T21:53:55.676Z,6.03
2023-05-09T21:56:22.848Z,5.60
2023-05-09T21:58:49.431Z,5.60
2023-05-09T22:01:16.850Z,5.10
2023-05-09T22:03:43.676Z,5.18
2023-05-09T22:06:11.506Z,4.60
2023-05-09T22:08:38.201Z,4.97
2023-05-09T22:11:04.884Z,5.15
2023-05-09T22:13:31.620Z,5.18
2023-05-09T22:15:58.288Z,5.10
2023-05-09T22:18:24.879Z,4.30
2023-05-09T22:20:51.499Z,4.00
2023-05-09T22:23:18.105Z,4.82
2023-05-09T22:25:44.670Z,5.05
2023-05-09T22:28:11.278Z,5.00
2023-05-09T22:30:37.870Z,5.03
2023-05-09T22:33:04.559Z,5.50
2023-05-09T22:35:31.137Z,4.80
2023-05-09T22:37:57.702Z,4.93
2023-05-09T22:40:24.315Z,5.30
2023-05-09T22:42:50.995Z,4.67
2023-05-09T22:45:17.611Z,4.95
2023-05-09T22:47:44.500Z,5.05
2023-05-09T22:50:12.324Z,5.00
2023-05-09T22:52:39.036Z,5.25
2023-05-09T22:55:06.223Z,5.00
2023-05-09T22:57:32.823Z,5.25
2023-05-09T22:59:59.454Z,5.25
2023-05-09T23:02:26.111Z,5.60
2023-05-09T23:04:52.705Z,5.25
2023-05-09T23:07:19.291Z,5.47
2023-05-09T23:09:45.808Z,4.15
2023-05-09T23:12:12.451Z,6.03
2023-05-09T23:14:39.292Z,5.70
2023-05-09T23:17:05.929Z,5.22
2023-05-09T23:19:32.817Z,4.90
2023-05-09T23:21:59.581Z,5.20
2023-05-09T23:24:26.220Z,5.07
2023-05-09T23:26:53.895Z,5.93
2023-05-09T23:29:20.508Z,6.30
2023-05-09T23:31:47.202Z,5.70
2023-05-09T23:34:14.148Z,5.93
2023-05-09T23:36:40.776Z,6.70
2023-05-09T23:39:07.304Z,6.00
2023-05-09T23:41:34.043Z,6.65
2023-05-09T23:44:01.879Z,5.60
2023-05-09T23:46:28.595Z,6.30
2023-05-09T23:48:56.110Z,5.63
2023-05-09T23:51:22.732Z,6.45
2023-05-09T23:53:49.499Z,5.40
2023-05-09T23:56:16.237Z,6.00
2023-05-09T23:58:43.079Z,5.85
